createdAt,value
2023-03-03T00:01:53.951Z,19.98
2023-03-03T00:04:21.019Z,16.10
2023-03-03T00:06:48.043Z,13.43
2023-03-03T00:09:15.090Z,16.77
2023-03-03T00:11:42.476Z,21.02
2023-03-03T00:14:30.462Z,14.68
2023-03-03T00:17:01.035Z,14.32
2023-03-03T00:19:36.680Z,19.50
2023-03-03T00:22:23.545Z,16.83
2023-03-03T00:24:50.813Z,17.70
2023-03-03T00:27:29.568Z,24.27
2023-03-03T00:30:01.066Z,16.25
2023-03-03T00:32:38.731Z,21.17
2023-03-03T00:35:30.501Z,18.73
2023-03-03T00:38:10.508Z,20.95
2023-03-03T00:40:39.597Z,16.80
2023-03-03T00:43:19.313Z,15.75
2023-03-03T00:45:55.213Z,19.77
2023-03-03T00:48:25.317Z,19.20
2023-03-03T00:50:57.953Z,17.23
2023-03-03T00:53:27.784Z,18.10
2023-03-03T00:55:55.178Z,21.95
2023-03-03T00:58:23.613Z,16.30
2023-03-03T01:00:53.124Z,17.52
2023-03-03T01:03:26.505Z,20.90
2023-03-03T01:05:54.805Z,17.58
2023-03-03T01:08:22.805Z,27.55
2023-03-03T01:10:56.155Z,20.50
2023-03-03T01:13:28.373Z,16.73
2023-03-03T01:15:55.675Z,18.75
2023-03-03T01:18:22.760Z,19.23
2023-03-03T01:20:50.818Z,23.40
2023-03-03T01:23:18.623Z,25.92
2023-03-03T01:25:45.767Z,16.58
2023-03-03T01:28:12.884Z,15.13
2023-03-03T01:30:40.329Z,19.25
2023-03-03T01:33:07.557Z,17.27
2023-03-03T01:35:36.665Z,16.83
2023-03-03T01:38:04.364Z,24.13
2023-03-03T01:40:31.881Z,24.42
2023-03-03T01:43:02.396Z,18.27
2023-03-03T01:45:49.452Z,19.85
2023-03-03T01:48:22.499Z,16.98
2023-03-03T01:50:55.687Z,19.83
2023-03-03T01:53:44.807Z,14.93
2023-03-03T01:56:12.035Z,11.15
2023-03-03T01:58:50.484Z,15.48
2023-03-03T02:01:23.071Z,18.52
2023-03-03T02:03:53.471Z,14.60
2023-03-03T02:06:25.149Z,13.60
2023-03-03T02:09:35.360Z,15.15
2023-03-03T02:12:08.235Z,18.67
2023-03-03T02:14:36.906Z,11.65
2023-03-03T02:17:04.069Z,15.00
2023-03-03T02:19:50.039Z,18.48
2023-03-03T02:22:23.042Z,14.80
2023-03-03T02:24:54.306Z,12.73
2023-03-03T02:27:21.450Z,18.83
2023-03-03T02:29:48.615Z,19.23
2023-03-03T02:32:15.710Z,17.92
2023-03-03T02:34:52.540Z,13.82
2023-03-03T02:37:20.793Z,15.50
2023-03-03T02:39:48.144Z,15.15
2023-03-03T02:42:19.174Z,20.60
2023-03-03T02:44:51.402Z,19.27
2023-03-03T02:47:18.809Z,16.30
2023-03-03T02:49:45.908Z,13.35
2023-03-03T02:52:15.156Z,21.80
2023-03-03T02:54:45.842Z,15.18
2023-03-03T02:57:13.102Z,16.45
2023-03-03T02:59:40.171Z,12.07
2023-03-03T03:02:12.085Z,13.23
2023-03-03T03:04:39.384Z,14.32
2023-03-03T03:07:06.876Z,12.15
2023-03-03T03:09:36.865Z,17.55
2023-03-03T03:12:05.451Z,15.60
2023-03-03T03:14:35.675Z,20.67
2023-03-03T03:17:02.721Z,11.27
2023-03-03T03:19:30.105Z,15.65
2023-03-03T03:22:01.044Z,13.93
2023-03-03T03:24:29.631Z,14.88
2023-03-03T03:27:02.312Z,15.10
2023-03-03T03:29:30.216Z,13.88
2023-03-03T03:31:57.521Z,13.40
2023-03-03T03:34:25.069Z,16.88
2023-03-03T03:36:53.782Z,13.70
2023-03-03T03:39:22.768Z,13.15
2023-03-03T03:41:52.052Z,14.38
2023-03-03T03:44:20.003Z,11.27
2023-03-03T03:46:47.096Z,12.63
2023-03-03T03:49:14.455Z,17.70
2023-03-03T03:51:42.405Z,14.15
2023-03-03T03:54:13.479Z,15.83
2023-03-03T03:56:41.842Z,10.43
2023-03-03T03:59:09.775Z,10.85
2023-03-03T04:01:38.093Z,10.23
2023-03-03T04:04:05.462Z,12.00
2023-03-03T04:06:33.324Z,9.52
2023-03-03T04:09:02.085Z,13.13
2023-03-03T04:11:30.458Z,11.90
2023-03-03T04:13:58.900Z,11.63
2023-03-03T04:16:29.120Z,11.68
2023-03-03T04:18:56.198Z,9.18
2023-03-03T04:21:25.343Z,7.63
2023-03-03T04:23:54.701Z,12.27
2023-03-03T04:26:22.315Z,9.95
2023-03-03T04:28:49.865Z,12.00
2023-03-03T04:31:18.087Z,13.18
2023-03-03T04:33:45.334Z,11.27
2023-03-03T04:36:12.559Z,12.10
2023-03-03T04:38:40.424Z,16.70
2023-03-03T04:41:09.575Z,11.50
2023-03-03T04:43:38.677Z,15.25
2023-03-03T04:46:06.422Z,14.57
2023-03-03T04:48:34.348Z,13.63
2023-03-03T04:51:02.790Z,9.77
2023-03-03T04:56:00.365Z,8.98
2023-03-03T04:58:27.362Z,14.60
2023-03-03T05:00:57.434Z,10.75
2023-03-03T05:03:27.472Z,11.48
2023-03-03T05:05:55.099Z,11.32
2023-03-03T05:08:22.485Z,8.65
2023-03-03T05:10:54.329Z,11.32
2023-03-03T05:15:56.011Z,9.27
2023-03-03T05:18:24.567Z,10.85
2023-03-03T05:20:52.819Z,14.57
2023-03-03T05:23:21.232Z,8.70
2023-03-03T05:25:49.097Z,11.27
2023-03-03T05:28:16.555Z,10.95
2023-03-03T05:30:43.793Z,13.65
2023-03-03T05:33:16.124Z,9.68
2023-03-03T05:35:43.698Z,9.00
2023-03-03T05:38:11.582Z,14.27
2023-03-03T05:40:39.267Z,8.90
2023-03-03T05:43:07.138Z,8.20
2023-03-03T05:45:35.359Z,10.82
2023-03-03T05:48:03.333Z,15.15
2023-03-03T05:50:30.851Z,10.27
2023-03-03T05:52:58.397Z,12.20
2023-03-03T05:55:25.730Z,17.00
2023-03-03T05:57:52.851Z,13.38
2023-03-03T06:00:20.268Z,11.75
2023-03-03T06:02:47.594Z,12.38
2023-03-03T06:05:17.732Z,15.05
2023-03-03T06:07:45.687Z,29.83
2023-03-03T06:10:12.807Z,15.10
2023-03-03T06:12:42.266Z,11.60
2023-03-03T06:15:18.103Z,14.00
2023-03-03T06:17:45.161Z,12.82
2023-03-03T06:20:12.212Z,14.63
2023-03-03T06:22:39.355Z,11.50
2023-03-03T06:25:06.522Z,12.98
2023-03-03T06:27:34.025Z,12.48
2023-03-03T06:30:01.206Z,13.57
2023-03-03T06:32:28.198Z,11.60
2023-03-03T06:34:55.301Z,13.63
2023-03-03T06:37:22.802Z,13.70
2023-03-03T06:39:51.751Z,13.05
2023-03-03T06:42:19.920Z,13.25
2023-03-03T06:44:47.519Z,18.38
2023-03-03T06:47:14.874Z,14.70
2023-03-03T06:49:42.940Z,10.95
2023-03-03T06:52:22.486Z,10.48
2023-03-03T06:54:51.085Z,14.70
2023-03-03T06:57:23.313Z,10.57
2023-03-03T06:59:56.208Z,12.85
2023-03-03T07:02:23.797Z,9.40
2023-03-03T07:04:51.072Z,12.23
2023-03-03T07:07:21.291Z,16.10
2023-03-03T07:09:54.680Z,8.43
2023-03-03T07:12:32.116Z,10.63
2023-03-03T07:15:23.080Z,14.40
2023-03-03T07:17:58.274Z,8.82
2023-03-03T07:20:32.780Z,11.40
2023-03-03T07:23:00.430Z,9.18
2023-03-03T07:25:39.221Z,8.90
2023-03-03T07:28:33.268Z,10.13
2023-03-03T07:31:00.502Z,5.47
2023-03-03T07:33:34.717Z,8.13
2023-03-03T07:36:06.447Z,11.57
2023-03-03T07:39:02.017Z,8.90
2023-03-03T07:41:30.987Z,17.05
2023-03-03T07:44:19.170Z,8.52
2023-03-03T07:46:50.595Z,10.48
2023-03-03T07:49:36.877Z,8.43
2023-03-03T07:52:25.201Z,8.15
2023-03-03T07:54:53.507Z,14.63
2023-03-03T07:57:35.220Z,8.23
2023-03-03T08:00:28.646Z,17.33
2023-03-03T08:03:00.706Z,15.82
2023-03-03T08:05:40.629Z,10.30
2023-03-03T08:08:10.520Z,7.80
2023-03-03T08:10:53.964Z,8.45
2023-03-03T08:13:29.700Z,8.43
2023-03-03T08:16:22.927Z,8.50
2023-03-03T08:18:53.521Z,8.38
2023-03-03T08:21:24.282Z,8.85
2023-03-03T08:23:53.645Z,12.05
2023-03-03T08:26:25.587Z,9.15
2023-03-03T08:28:54.574Z,8.00
2023-03-03T08:31:38.450Z,8.05
2023-03-03T08:34:07.836Z,5.47
2023-03-03T08:36:35.223Z,9.40
2023-03-03T08:39:03.230Z,11.40
2023-03-03T08:41:30.393Z,7.97
2023-03-03T08:43:57.618Z,8.38
2023-03-03T08:46:25.088Z,6.55
2023-03-03T08:48:54.460Z,6.72
2023-03-03T08:51:21.644Z,9.00
2023-03-03T08:53:55.195Z,8.80
2023-03-03T08:56:22.204Z,9.10
2023-03-03T08:59:01.774Z,7.00
2023-03-03T09:01:31.508Z,7.03
2023-03-03T09:03:58.819Z,6.82
2023-03-03T09:06:26.019Z,7.88
2023-03-03T09:08:55.024Z,8.68
2023-03-03T09:11:28.291Z,13.52
2023-03-03T09:14:15.595Z,7.13
2023-03-03T09:16:53.402Z,9.73
2023-03-03T09:19:38.451Z,11.30
2023-03-03T09:22:36.503Z,8.07
2023-03-03T09:25:15.066Z,4.43
2023-03-03T09:27:42.085Z,9.20
2023-03-03T09:30:39.622Z,12.30
2023-03-03T09:33:52.083Z,9.90
2023-03-03T09:38:49.684Z,8.88
2023-03-03T09:41:53.855Z,14.90
2023-03-03T09:44:41.060Z,10.00
2023-03-03T09:47:25.146Z,13.88
2023-03-03T09:49:52.601Z,11.45
2023-03-03T09:52:53.368Z,7.78
2023-03-03T09:55:25.332Z,7.05
2023-03-03T09:58:13.765Z,8.35
2023-03-03T10:00:55.134Z,6.38
2023-03-03T10:04:13.038Z,6.57
2023-03-03T10:07:07.259Z,9.40
2023-03-03T10:10:04.618Z,8.35
2023-03-03T10:13:06.383Z,7.50
2023-03-03T10:15:40.492Z,7.15
2023-03-03T10:18:25.531Z,11.75
2023-03-03T10:21:02.390Z,5.35
2023-03-03T10:23:59.197Z,11.20
2023-03-03T10:27:12.066Z,7.32
2023-03-03T10:30:04.072Z,7.28
2023-03-03T10:32:42.504Z,8.32
2023-03-03T10:35:23.720Z,6.15
2023-03-03T10:38:23.133Z,8.35
2023-03-03T10:40:55.129Z,6.95
2023-03-03T10:43:51.400Z,7.88
2023-03-03T10:46:52.284Z,13.98
2023-03-03T10:49:46.031Z,8.80
2023-03-03T10:52:32.552Z,8.98
2023-03-03T10:55:21.652Z,9.05
2023-03-03T10:58:05.590Z,9.40
2023-03-03T11:00:49.948Z,6.13
2023-03-03T11:03:40.107Z,6.10
2023-03-03T11:06:37.594Z,9.52
2023-03-03T11:09:31.371Z,4.88
2023-03-03T11:12:24.348Z,7.35
2023-03-03T11:15:04.586Z,5.88
2023-03-03T11:18:04.139Z,6.95
2023-03-03T11:20:38.825Z,6.18
2023-03-03T11:23:45.532Z,9.25
2023-03-03T11:26:12.727Z,7.53
2023-03-03T11:29:12.279Z,4.68
2023-03-03T11:31:53.573Z,7.30
2023-03-03T11:34:50.799Z,8.13
2023-03-03T11:37:39.326Z,5.80
2023-03-03T11:40:40.482Z,7.90
2023-03-03T11:43:38.633Z,7.78
2023-03-03T11:46:25.538Z,4.00
2023-03-03T11:49:35.117Z,6.82
2023-03-03T11:52:28.643Z,5.28
2023-03-03T11:55:01.530Z,4.25
2023-03-03T11:58:01.052Z,6.63
2023-03-03T12:01:09.455Z,7.13
2023-03-03T12:03:52.164Z,4.57
2023-03-03T12:06:32.972Z,5.03
2023-03-03T12:09:27.447Z,7.75
2023-03-03T12:11:57.146Z,4.38
2023-03-03T12:14:24.199Z,5.82
2023-03-03T12:17:03.357Z,7.53
2023-03-03T12:19:48.619Z,4.88
2023-03-03T12:22:39.670Z,7.78
2023-03-03T12:25:21.555Z,5.95
2023-03-03T12:27:51.508Z,5.78
2023-03-03T12:30:55.978Z,5.15
2023-03-03T12:33:39.367Z,5.53
2023-03-03T12:36:41.972Z,6.10
2023-03-03T12:39:43.423Z,3.08
2023-03-03T12:42:44.306Z,5.03
2023-03-03T12:45:40.716Z,5.90
2023-03-03T12:48:38.480Z,4.63
2023-03-03T12:51:27.169Z,3.65
2023-03-03T12:54:11.666Z,5.85
2023-03-03T12:57:00.829Z,3.90
2023-03-03T12:59:38.365Z,3.35
2023-03-03T13:02:27.311Z,5.75
2023-03-03T13:05:02.848Z,4.55
2023-03-03T13:07:46.105Z,3.80
2023-03-03T13:10:28.281Z,2.70
2023-03-03T13:13:17.445Z,4.47
2023-03-03T13:16:06.441Z,3.78
2023-03-03T13:18:48.885Z,3.10
2023-03-03T13:21:34.744Z,2.33
2023-03-03T13:24:05.205Z,2.00
2023-03-03T13:26:43.116Z,2.72
2023-03-03T13:29:24.524Z,4.00
2023-03-03T13:32:12.774Z,1.77
2023-03-03T13:34:59.633Z,8.43
2023-03-03T13:37:43.946Z,2.97
2023-03-03T13:40:19.580Z,6.63
2023-03-03T13:42:55.848Z,2.83
2023-03-03T13:45:42.992Z,4.30
2023-03-03T13:48:21.797Z,6.13
2023-03-03T13:51:02.722Z,4.10
2023-03-03T13:53:58.791Z,8.55
2023-03-03T13:56:50.008Z,4.93
2023-03-03T13:59:48.776Z,4.33
2023-03-03T14:02:33.656Z,3.45
2023-03-03T14:05:09.266Z,4.50
2023-03-03T14:07:50.229Z,2.00
2023-03-03T14:10:34.325Z,2.22
2023-03-03T14:13:13.576Z,3.15
2023-03-03T14:16:04.952Z,2.63
2023-03-03T14:18:54.827Z,2.28
2023-03-03T14:21:27.111Z,3.38
2023-03-03T14:24:02.255Z,2.08
2023-03-03T14:26:29.301Z,2.35
2023-03-03T14:29:29.264Z,3.53
2023-03-03T14:31:59.849Z,3.03
2023-03-03T14:34:36.931Z,4.53
2023-03-03T14:37:22.460Z,1.60
2023-03-03T14:40:06.912Z,1.85
2023-03-03T14:42:57.844Z,1.92
2023-03-03T14:45:33.887Z,2.85
2023-03-03T14:48:16.405Z,1.98
2023-03-03T14:51:24.042Z,1.20
2023-03-03T14:53:52.106Z,1.35
2023-03-03T14:56:27.816Z,1.05
2023-03-03T14:59:32.257Z,0.98
2023-03-03T15:02:27.663Z,1.42
2023-03-03T15:05:28.782Z,1.80
2023-03-03T15:07:57.852Z,1.75
2023-03-03T15:10:36.162Z,1.60
2023-03-03T15:13:33.279Z,1.45
2023-03-03T15:16:00.312Z,2.22
2023-03-03T15:18:30.441Z,1.95
2023-03-03T15:21:05.643Z,1.20
2023-03-03T15:23:57.090Z,3.13
2023-03-03T15:26:32.626Z,1.88
2023-03-03T15:29:12.541Z,2.40
2023-03-03T15:32:06.896Z,3.80
2023-03-03T15:35:01.245Z,14.98
2023-03-03T15:37:52.090Z,1.88
2023-03-03T15:40:39.540Z,9.02
2023-03-03T15:43:48.867Z,1.73
2023-03-03T15:46:26.469Z,1.48
2023-03-03T15:49:05.539Z,1.70
2023-03-03T15:52:03.457Z,1.40
2023-03-03T15:54:47.482Z,1.65
2023-03-03T15:57:17.336Z,2.47
2023-03-03T15:59:53.184Z,1.05
2023-03-03T16:02:41.668Z,1.35
2023-03-03T16:05:47.044Z,1.17
2023-03-03T16:08:38.232Z,1.85
2023-03-03T16:11:22.725Z,0.73
2023-03-03T16:14:10.984Z,0.80
2023-03-03T16:17:07.586Z,2.25
2023-03-03T16:20:03.626Z,1.05
2023-03-03T16:23:04.661Z,0.70
2023-03-03T16:25:42.656Z,1.20
2023-03-03T16:28:14.331Z,2.47
2023-03-03T16:30:58.429Z,2.03
2023-03-03T16:33:37.570Z,0.70
2023-03-03T16:36:23.667Z,2.47
2023-03-03T16:39:01.838Z,2.33
2023-03-03T16:41:34.956Z,9.55
2023-03-03T16:44:12.843Z,3.58
2023-03-03T16:46:43.418Z,1.95
2023-03-03T16:49:22.248Z,2.85
2023-03-03T16:52:04.313Z,2.42
2023-03-03T16:54:54.590Z,4.00
2023-03-03T16:57:27.194Z,2.03
2023-03-03T17:00:22.627Z,2.17
2023-03-03T17:03:01.573Z,2.10
2023-03-03T17:05:43.084Z,1.88
2023-03-03T17:08:57.535Z,4.35
2023-03-03T17:11:46.294Z,2.08
2023-03-03T17:14:40.955Z,3.47
2023-03-03T17:17:55.720Z,2.20
2023-03-03T17:20:48.886Z,2.00
2023-03-03T17:23:25.423Z,1.10
2023-03-03T17:26:14.979Z,2.88
2023-03-03T17:28:51.239Z,9.77
2023-03-03T17:31:51.051Z,3.42
2023-03-03T17:34:29.821Z,1.75
2023-03-03T17:37:20.380Z,6.65
2023-03-03T17:40:28.802Z,6.97
2023-03-03T17:43:25.700Z,1.15
2023-03-03T17:45:56.554Z,2.03
2023-03-03T17:48:31.208Z,1.38
2023-03-03T17:51:01.438Z,1.10
2023-03-03T17:53:47.027Z,2.15
2023-03-03T17:56:21.854Z,1.77
2023-03-03T17:59:18.965Z,2.15
2023-03-03T18:02:03.581Z,1.52
2023-03-03T18:04:48.528Z,2.05
2023-03-03T18:07:15.589Z,2.15
2023-03-03T18:09:45.638Z,3.05
2023-03-03T18:12:53.210Z,2.25
2023-03-03T18:15:38.881Z,2.85
2023-03-03T18:18:23.327Z,1.98
2023-03-03T18:20:56.671Z,0.85
2023-03-03T18:23:43.861Z,3.38
2023-03-03T18:26:36.254Z,2.85
2023-03-03T18:29:22.209Z,1.90
2023-03-03T18:31:59.360Z,2.67
2023-03-03T18:34:41.149Z,5.35
2023-03-03T18:37:40.568Z,2.35
2023-03-03T18:40:14.421Z,1.15
2023-03-03T18:42:43.830Z,4.15
2023-03-03T18:45:20.012Z,1.55
2023-03-03T18:48:20.310Z,3.03
2023-03-03T18:50:50.250Z,1.48
2023-03-03T18:53:37.792Z,1.90
2023-03-03T18:56:14.227Z,2.95
2023-03-03T18:58:44.717Z,2.92
2023-03-03T19:01:40.166Z,2.67
2023-03-03T19:04:23.101Z,3.63
2023-03-03T19:06:51.962Z,2.67
2023-03-03T19:09:57.622Z,10.60
2023-03-03T19:12:53.764Z,5.32
2023-03-03T19:15:30.360Z,1.75
2023-03-03T19:18:04.880Z,2.20
2023-03-03T19:20:42.662Z,6.93
2023-03-03T19:23:20.965Z,5.57
2023-03-03T19:26:25.305Z,2.88
2023-03-03T19:29:19.186Z,5.32
2023-03-03T19:32:03.636Z,5.72
2023-03-03T19:34:55.723Z,3.95
2023-03-03T19:37:45.589Z,3.90
2023-03-03T19:40:42.638Z,1.92
2023-03-03T19:43:28.595Z,3.30
2023-03-03T19:46:41.173Z,3.63
2023-03-03T19:49:10.995Z,15.90
2023-03-03T19:52:02.188Z,3.30
2023-03-03T19:54:46.154Z,2.33
2023-03-03T19:57:41.983Z,4.25
2023-03-03T20:00:19.697Z,3.60
2023-03-03T20:03:04.470Z,5.93
2023-03-03T20:05:41.921Z,7.85
2023-03-03T20:08:22.294Z,5.35
2023-03-03T20:11:19.729Z,8.45
2023-03-03T20:14:02.457Z,7.93
2023-03-03T20:16:41.499Z,4.47
2023-03-03T20:19:27.884Z,8.05
2023-03-03T20:22:06.076Z,2.83
2023-03-03T20:24:58.659Z,6.45
2023-03-03T20:27:57.870Z,4.75
2023-03-03T20:30:28.638Z,8.35
2023-03-03T20:33:07.814Z,4.25
2023-03-03T20:35:48.605Z,5.35
2023-03-03T20:38:33.324Z,6.57
2023-03-03T20:41:25.936Z,11.13
2023-03-03T20:44:27.758Z,6.03
2023-03-03T20:50:12.217Z,5.30
2023-03-03T20:53:07.652Z,6.70
2023-03-03T20:56:25.908Z,7.65
2023-03-03T20:59:34.667Z,16.52
2023-03-03T21:02:21.741Z,5.57
2023-03-03T21:05:09.636Z,6.45
2023-03-03T21:07:38.190Z,5.35
2023-03-03T21:10:17.477Z,7.28
2023-03-03T21:12:47.634Z,5.85
2023-03-03T21:15:33.713Z,10.57
2023-03-03T21:18:19.836Z,7.30
2023-03-03T21:20:50.521Z,5.53
2023-03-03T21:23:22.906Z,6.50
2023-03-03T21:26:00.135Z,2.78
2023-03-03T21:28:30.198Z,6.72
2023-03-03T21:31:14.255Z,4.88
2023-03-03T21:33:42.944Z,8.10
2023-03-03T21:36:12.831Z,10.85
2023-03-03T21:38:41.322Z,9.15
2023-03-03T21:41:11.238Z,6.55
2023-03-03T21:43:42.925Z,4.70
2023-03-03T21:46:11.990Z,18.48
2023-03-03T21:48:44.016Z,13.95
2023-03-03T21:51:14.227Z,8.55
2023-03-03T21:53:44.456Z,2.70
2023-03-03T21:56:14.932Z,3.38
2023-03-03T21:58:43.004Z,6.65
2023-03-03T22:01:10.068Z,6.07
2023-03-03T22:03:37.635Z,4.88
2023-03-03T22:06:08.415Z,4.85
2023-03-03T22:08:35.681Z,6.57
2023-03-03T22:11:04.261Z,13.35
2023-03-03T22:13:33.717Z,2.88
2023-03-03T22:16:00.853Z,7.65
2023-03-03T22:18:28.006Z,12.43
2023-03-03T22:20:55.153Z,7.20
2023-03-03T22:23:22.168Z,7.82
2023-03-03T22:25:50.359Z,9.90
2023-03-03T22:28:18.691Z,12.13
2023-03-03T22:30:45.700Z,15.85
2023-03-03T22:33:16.515Z,13.05
2023-03-03T22:35:44.621Z,5.22
2023-03-03T22:38:11.619Z,11.80
2023-03-03T22:40:42.744Z,10.02
2023-03-03T22:43:14.678Z,9.60
2023-03-03T22:45:44.801Z,4.10
2023-03-03T22:48:12.609Z,8.07
2023-03-03T22:50:40.715Z,10.13
2023-03-03T22:53:07.724Z,10.70
2023-03-03T22:55:37.260Z,8.90
2023-03-03T22:58:08.198Z,4.72
2023-03-03T23:00:38.573Z,9.48
2023-03-03T23:03:10.522Z,5.78
2023-03-03T23:05:38.098Z,15.57
2023-03-03T23:08:10.971Z,12.73
2023-03-03T23:10:38.471Z,12.10
2023-03-03T23:13:05.471Z,9.90
2023-03-03T23:15:32.882Z,8.57
2023-03-03T23:18:00.149Z,8.13
2023-03-03T23:20:29.205Z,4.80
2023-03-03T23:22:56.470Z,10.43
2023-03-03T23:25:24.518Z,16.77
2023-03-03T23:27:52.443Z,9.27
2023-03-03T23:30:20.735Z,7.47
2023-03-03T23:32:48.366Z,5.68
2023-03-03T23:35:15.643Z,2.67
2023-03-03T23:37:43.753Z,6.38
2023-03-03T23:40:13.749Z,9.82
2023-03-03T23:42:41.145Z,11.63
2023-03-03T23:45:09.278Z,5.80
2023-03-03T23:47:36.448Z,8.48
2023-03-03T23:50:05.243Z,6.70
2023-03-03T23:52:32.349Z,8.75
2023-03-03T23:55:01.022Z,8.02
2023-03-03T23:57:28.314Z,6.20
2023-03-03T23:59:55.535Z,13.95
